createdAt,value
2018-08-06T00:00:24.159Z,43.80
2018-08-06T00:02:29.079Z,44.00
2018-08-06T00:04:31.973Z,46.20
2018-08-06T00:06:34.542Z,45.80
2018-08-06T00:08:37.203Z,45.20
2018-08-06T00:10:39.627Z,46.30
2018-08-06T00:12:47.656Z,46.50
2018-08-06T00:14:49.998Z,44.70
2018-08-06T00:17:00.784Z,42.70
2018-08-06T00:19:06.410Z,43.30
2018-08-06T00:21:12.268Z,43.70
2018-08-06T00:23:15.781Z,44.00
2018-08-06T00:27:22.141Z,43.50
2018-08-06T00:29:24.782Z,42.90
2018-08-06T00:31:27.817Z,42.80
2018-08-06T00:33:30.216Z,42.10
2018-08-06T00:35:32.404Z,41.20
2018-08-06T00:37:34.580Z,41.90
2018-08-06T00:39:36.762Z,41.70
2018-08-06T00:41:39.354Z,46.30
2018-08-06T00:43:41.710Z,47.90
2018-08-06T00:45:45.072Z,45.80
2018-08-06T00:47:49.615Z,45.50
2018-08-06T00:49:52.053Z,42.20
2018-08-06T00:51:54.402Z,40.20
2018-08-06T00:53:57.341Z,40.40
2018-08-06T00:55:59.575Z,39.60
2018-08-06T00:58:01.896Z,41.00
2018-08-06T01:00:10.764Z,42.50
2018-08-06T01:02:13.141Z,43.80
2018-08-06T01:04:15.609Z,44.40
2018-08-06T01:06:18.201Z,44.40
2018-08-06T01:08:21.396Z,47.50
2018-08-06T01:10:23.706Z,49.40
2018-08-06T01:12:27.390Z,50.20
2018-08-06T01:14:31.370Z,50.50
2018-08-06T01:16:35.310Z,51.40
2018-08-06T01:18:42.291Z,54.50
2018-08-06T01:20:45.111Z,54.10
2018-08-06T01:22:47.964Z,53.60
2018-08-06T01:24:59.249Z,54.40
2018-08-06T01:27:03.308Z,56.80
2018-08-06T01:29:07.733Z,57.70
2018-08-06T01:31:10.446Z,55.10
2018-08-06T01:33:13.023Z,51.30
2018-08-06T01:35:15.266Z,50.70
2018-08-06T01:37:17.458Z,49.10
2018-08-06T01:39:19.916Z,52.50
2018-08-06T01:41:22.194Z,53.80
2018-08-06T01:43:26.179Z,53.80
2018-08-06T01:45:28.530Z,51.70
2018-08-06T01:47:30.708Z,52.60
2018-08-06T01:49:32.818Z,52.30
2018-08-06T01:51:34.976Z,53.20
2018-08-06T01:53:37.155Z,55.00
2018-08-06T01:55:39.329Z,56.30
2018-08-06T01:57:41.486Z,55.10
2018-08-06T01:59:43.670Z,55.80
2018-08-06T02:01:45.820Z,58.10
2018-08-06T02:03:48.002Z,57.00
2018-08-06T02:05:50.121Z,56.00
2018-08-06T02:07:52.306Z,56.10
2018-08-06T02:09:54.474Z,56.80
2018-08-06T02:13:58.843Z,53.60
2018-08-06T02:16:01.027Z,49.40
2018-08-06T02:18:03.186Z,48.70
2018-08-06T02:20:06.069Z,53.50
2018-08-06T02:22:08.221Z,53.40
2018-08-06T02:24:10.368Z,51.50
2018-08-06T02:26:12.530Z,51.70
2018-08-06T02:28:14.659Z,51.20
2018-08-06T02:32:19.008Z,54.50
2018-08-06T02:34:21.229Z,54.00
2018-08-06T02:36:23.372Z,52.70
2018-08-06T02:38:25.554Z,50.20
2018-08-06T02:40:27.719Z,53.70
2018-08-06T02:42:29.941Z,57.30
2018-08-06T02:44:32.105Z,57.10
2018-08-06T02:46:34.298Z,57.30
2018-08-06T02:48:36.445Z,53.20
2018-08-06T02:50:38.574Z,53.70
2018-08-06T02:52:41.830Z,53.20
2018-08-06T02:54:43.966Z,58.40
2018-08-06T02:56:46.267Z,60.20
2018-08-06T02:58:48.385Z,63.10
2018-08-06T03:00:50.511Z,62.80
2018-08-06T03:02:52.646Z,63.90
2018-08-06T03:04:54.823Z,64.30
2018-08-06T03:06:56.967Z,64.00
2018-08-06T03:08:59.234Z,63.30
2018-08-06T03:11:01.412Z,62.90
2018-08-06T03:13:03.970Z,64.70
2018-08-06T03:15:07.198Z,64.80
2018-08-06T03:17:09.366Z,61.20
2018-08-06T03:19:11.567Z,61.40
2018-08-06T03:21:13.743Z,64.10
2018-08-06T03:23:15.878Z,66.10
2018-08-06T03:25:18.067Z,64.40
2018-08-06T03:27:20.249Z,62.00
2018-08-06T03:29:22.423Z,59.50
2018-08-06T03:31:24.558Z,59.50
2018-08-06T03:33:26.701Z,59.90
2018-08-06T03:35:28.878Z,64.00
2018-08-06T03:37:31.082Z,63.90
2018-08-06T03:39:33.297Z,62.50
2018-08-06T03:41:35.608Z,62.50
2018-08-06T03:43:37.755Z,62.60
2018-08-06T03:45:39.953Z,64.50
2018-08-06T03:47:42.733Z,66.60
2018-08-06T03:49:44.880Z,68.10
2018-08-06T03:51:47.045Z,70.30
2018-08-06T03:53:49.166Z,68.80
2018-08-06T03:55:51.330Z,65.90
2018-08-06T03:57:53.454Z,64.30
2018-08-06T03:59:55.633Z,67.40
2018-08-06T04:01:57.763Z,67.50
2018-08-06T04:03:59.962Z,69.90
2018-08-06T04:06:02.127Z,68.20
2018-08-06T04:10:07.933Z,67.60
2018-08-06T04:12:10.084Z,67.50
2018-08-06T04:14:12.258Z,67.50
2018-08-06T04:16:14.793Z,68.50
2018-08-06T04:18:16.924Z,69.90
2018-08-06T04:20:19.064Z,69.20
2018-08-06T04:22:21.192Z,68.10
2018-08-06T04:24:23.350Z,67.40
2018-08-06T04:26:25.518Z,67.60
2018-08-06T04:28:27.711Z,67.00
2018-08-06T04:30:29.916Z,67.40
2018-08-06T04:32:32.033Z,67.40
2018-08-06T04:34:34.181Z,68.00
2018-08-06T04:36:36.310Z,68.20
2018-08-06T04:38:38.505Z,69.10
2018-08-06T04:40:40.668Z,69.20
2018-08-06T04:42:43.126Z,70.00
2018-08-06T04:44:45.237Z,69.30
2018-08-06T04:46:47.364Z,68.80
2018-08-06T04:48:50.011Z,68.30
2018-08-06T04:50:52.149Z,69.00
2018-08-06T04:52:54.294Z,70.10
2018-08-06T04:54:56.482Z,72.40
2018-08-06T04:56:58.613Z,72.00
2018-08-06T04:59:00.749Z,72.90
2018-08-06T05:01:02.978Z,75.30
2018-08-06T05:03:05.114Z,77.20
2018-08-06T05:05:08.450Z,78.60
2018-08-06T05:07:10.624Z,78.70
2018-08-06T05:09:19.085Z,80.70
2018-08-06T05:11:21.250Z,80.10
2018-08-06T05:13:23.408Z,79.80
2018-08-06T05:15:25.607Z,78.80
2018-08-06T05:17:27.792Z,79.20
2018-08-06T05:19:29.950Z,79.10
2018-08-06T05:21:32.092Z,77.80
2018-08-06T05:23:49.443Z,78.80
2018-08-06T05:25:51.569Z,78.80
2018-08-06T05:27:53.745Z,77.40
2018-08-06T05:29:55.882Z,78.00
2018-08-06T05:31:58.047Z,77.90
2018-08-06T05:34:00.164Z,79.10
2018-08-06T05:36:02.325Z,79.20
2018-08-06T05:38:04.546Z,80.20
2018-08-06T05:40:07.880Z,79.40
2018-08-06T05:42:10.002Z,75.50
2018-08-06T05:44:12.168Z,76.80
2018-08-06T05:46:14.346Z,74.70
2018-08-06T05:48:16.591Z,74.10
2018-08-06T05:50:18.682Z,74.70
2018-08-06T05:52:20.880Z,74.70
2018-08-06T05:54:23.056Z,74.50
2018-08-06T05:56:25.219Z,74.40
2018-08-06T05:58:28.020Z,73.40
2018-08-06T06:00:30.480Z,73.60
2018-08-06T06:02:32.751Z,68.80
2018-08-06T06:04:34.905Z,69.50
2018-08-06T06:06:37.130Z,68.50
2018-08-06T06:08:39.879Z,66.40
2018-08-06T06:10:42.104Z,63.90
2018-08-06T06:12:44.336Z,64.60
2018-08-06T06:14:46.466Z,60.00
2018-08-06T06:16:48.668Z,56.70
2018-08-06T06:18:50.867Z,57.40
2018-08-06T06:20:53.074Z,57.90
2018-08-06T06:22:55.240Z,54.10
2018-08-06T06:24:57.417Z,55.30
2018-08-06T06:27:06.131Z,52.30
2018-08-06T06:29:08.863Z,49.90
2018-08-06T06:31:19.758Z,50.80
2018-08-06T06:35:58.098Z,42.20
2018-08-06T06:38:00.275Z,48.10
2018-08-06T06:40:02.383Z,44.00
2018-08-06T06:42:04.481Z,41.80
2018-08-06T06:44:07.102Z,37.10
2018-08-06T06:46:09.197Z,33.00
2018-08-06T06:48:11.432Z,35.90
2018-08-06T06:50:13.694Z,36.90
2018-08-06T06:52:15.942Z,32.30
2018-08-06T06:54:18.070Z,31.50
2018-08-06T06:56:20.211Z,32.50
2018-08-06T06:58:22.297Z,34.50
2018-08-06T07:00:24.497Z,31.50
2018-08-06T07:02:26.623Z,27.40
2018-08-06T07:04:28.700Z,25.70
2018-08-06T07:06:30.783Z,25.40
2018-08-06T07:08:32.841Z,24.20
2018-08-06T07:10:34.956Z,24.40
2018-08-06T07:12:37.352Z,24.20
2018-08-06T07:14:44.110Z,24.70
2018-08-06T07:16:46.561Z,22.40
2018-08-06T07:18:48.722Z,21.70
2018-08-06T07:20:51.453Z,20.70
2018-08-06T07:22:53.703Z,19.10
2018-08-06T07:24:55.825Z,19.30
2018-08-06T07:26:58.454Z,20.00
2018-08-06T07:29:00.877Z,17.00
2018-08-06T07:31:03.504Z,15.40
2018-08-06T07:33:07.585Z,16.10
2018-08-06T07:35:11.354Z,17.00
2018-08-06T07:37:13.625Z,16.10
2018-08-06T07:39:15.797Z,14.70
2018-08-06T07:41:17.992Z,16.20
2018-08-06T07:43:20.174Z,17.70
2018-08-06T07:45:23.379Z,13.90
2018-08-06T07:47:25.643Z,14.60
2018-08-06T07:49:28.188Z,15.30
2018-08-06T07:51:30.682Z,13.60
2018-08-06T07:53:33.395Z,13.10
2018-08-06T07:55:35.763Z,11.90
2018-08-06T07:57:38.546Z,13.50
2018-08-06T07:59:41.243Z,11.70
2018-08-06T08:01:43.599Z,11.80
2018-08-06T08:05:48.515Z,9.60
2018-08-06T08:07:51.346Z,11.10
2018-08-06T08:09:54.099Z,10.80
2018-08-06T08:13:59.068Z,9.70
2018-08-06T08:16:01.507Z,10.70
2018-08-06T08:18:05.782Z,9.90
2018-08-06T08:20:11.216Z,11.00
2018-08-06T08:22:13.401Z,10.30
2018-08-06T08:24:15.691Z,8.50
2018-08-06T08:26:17.833Z,7.90
2018-08-06T08:28:20.006Z,12.50
2018-08-06T08:30:22.347Z,9.20
2018-08-06T08:32:24.699Z,5.60
2018-08-06T08:34:27.303Z,9.10
2018-08-06T08:36:29.813Z,6.60
2018-08-06T08:38:31.969Z,8.70
2018-08-06T08:40:34.495Z,4.40
2018-08-06T08:42:36.989Z,4.10
2018-08-06T08:44:39.479Z,4.40
2018-08-06T08:46:42.385Z,2.40
2018-08-06T08:48:45.262Z,2.80
2018-08-06T08:50:47.693Z,1.70
2018-08-06T08:52:50.237Z,1.20
2018-08-06T08:54:52.579Z,1.70
2018-08-06T08:56:59.819Z,4.60
2018-08-06T08:59:02.423Z,1.40
2018-08-06T09:01:05.323Z,1.00
2018-08-06T09:03:09.020Z,4.40
2018-08-06T09:05:13.694Z,1.00
2018-08-06T09:07:19.733Z,1.00
2018-08-06T09:09:22.792Z,1.00
2018-08-06T09:11:25.963Z,1.00
2018-08-06T09:13:30.971Z,1.00
2018-08-06T09:15:33.848Z,1.00
2018-08-06T09:17:36.213Z,1.00
2018-08-06T09:19:40.494Z,1.00
2018-08-06T09:21:43.062Z,1.00
2018-08-06T09:23:45.427Z,1.00
2018-08-06T09:25:50.342Z,1.00
2018-08-06T09:27:52.670Z,1.00
2018-08-06T09:29:55.289Z,1.00
2018-08-06T09:31:57.813Z,1.00
2018-08-06T09:34:00.078Z,1.00
2018-08-06T09:36:03.843Z,1.00
2018-08-06T09:38:06.480Z,1.00
2018-08-06T09:40:11.575Z,1.00
2018-08-06T09:42:17.328Z,1.00
2018-08-06T09:44:19.780Z,1.00
2018-08-06T09:46:22.833Z,1.00
2018-08-06T09:48:26.510Z,1.00
2018-08-06T09:50:29.304Z,1.00
2018-08-06T09:52:33.431Z,1.00
2018-08-06T09:54:37.537Z,1.00
2018-08-06T09:56:40.122Z,1.00
2018-08-06T09:58:43.425Z,1.00
2018-08-06T10:00:51.698Z,1.00
2018-08-06T10:02:55.944Z,1.00
2018-08-06T10:04:58.692Z,1.00
2018-08-06T10:07:01.131Z,1.00
2018-08-06T10:09:05.269Z,1.00
2018-08-06T10:11:07.453Z,1.00
2018-08-06T10:13:09.590Z,1.00
2018-08-06T10:15:12.610Z,1.00
2018-08-06T10:17:14.821Z,1.00
2018-08-06T10:19:17.248Z,1.00
2018-08-06T10:21:19.302Z,1.00
2018-08-06T10:23:21.502Z,1.00
2018-08-06T10:25:23.807Z,1.00
2018-08-06T10:27:26.564Z,1.00
2018-08-06T10:29:28.833Z,1.00
2018-08-06T10:31:30.922Z,1.00
2018-08-06T10:33:32.994Z,1.00
2018-08-06T10:35:35.082Z,1.00
2018-08-06T10:37:37.579Z,1.00
2018-08-06T10:39:39.791Z,1.00
2018-08-06T10:41:41.865Z,1.00
2018-08-06T10:43:43.965Z,1.00
2018-08-06T10:45:46.049Z,1.00
2018-08-06T10:47:48.785Z,1.00
2018-08-06T10:49:51.045Z,1.00
2018-08-06T10:51:53.166Z,1.00
2018-08-06T10:53:55.317Z,1.00
2018-08-06T10:55:57.364Z,1.00
2018-08-06T10:57:59.425Z,1.00
2018-08-06T11:00:01.533Z,1.00
2018-08-06T11:02:03.679Z,1.00
2018-08-06T11:04:05.776Z,1.00
2018-08-06T11:06:07.895Z,1.00
2018-08-06T11:08:09.954Z,1.00
2018-08-06T11:10:15.241Z,1.00
2018-08-06T11:12:17.387Z,1.00
2018-08-06T11:14:19.662Z,1.00
2018-08-06T11:16:21.710Z,1.00
2018-08-06T11:18:23.773Z,1.00
2018-08-06T11:20:25.859Z,1.00
2018-08-06T11:22:27.928Z,1.00
2018-08-06T11:24:30.106Z,1.00
2018-08-06T11:26:32.162Z,1.00
2018-08-06T11:28:35.191Z,1.00
2018-08-06T11:30:37.442Z,1.00
2018-08-06T11:32:39.496Z,1.00
2018-08-06T11:36:43.790Z,1.00
2018-08-06T11:38:46.197Z,1.00
2018-08-06T11:40:48.563Z,1.00
2018-08-06T11:44:53.101Z,1.00
2018-08-06T11:46:55.418Z,1.00
2018-08-06T11:48:57.484Z,1.00
2018-08-06T11:50:59.885Z,1.00
2018-08-06T11:53:02.314Z,1.00
2018-08-06T11:55:04.741Z,1.00
2018-08-06T11:57:06.933Z,1.00
2018-08-06T11:59:09.410Z,1.00
2018-08-06T12:01:11.475Z,1.00
2018-08-06T12:03:13.631Z,1.00
2018-08-06T12:05:16.398Z,1.00
2018-08-06T12:07:18.461Z,1.00
2018-08-06T12:09:20.560Z,1.00
2018-08-06T12:11:22.739Z,1.00
2018-08-06T12:13:25.205Z,1.00
2018-08-06T12:15:27.410Z,1.00
2018-08-06T12:17:29.547Z,1.00
2018-08-06T12:19:31.601Z,1.00
2018-08-06T12:21:33.710Z,1.00
2018-08-06T12:23:35.795Z,1.00
2018-08-06T12:25:37.839Z,1.00
2018-08-06T12:27:40.090Z,1.00
2018-08-06T12:29:42.185Z,1.00
2018-08-06T12:31:44.322Z,1.00
2018-08-06T12:33:46.473Z,1.00
2018-08-06T12:35:48.541Z,1.00
2018-08-06T12:37:50.578Z,1.00
2018-08-06T12:39:52.733Z,1.00
2018-08-06T12:41:54.826Z,1.00
2018-08-06T12:43:56.943Z,1.00
2018-08-06T12:45:59.016Z,1.00
2018-08-06T12:48:01.170Z,1.00
2018-08-06T12:50:04.064Z,1.00
2018-08-06T12:52:06.150Z,1.00
2018-08-06T12:56:11.059Z,1.00
2018-08-06T12:58:13.204Z,1.00
2018-08-06T13:00:24.827Z,1.00
2018-08-06T13:02:26.874Z,1.00
2018-08-06T13:04:28.960Z,1.00
2018-08-06T13:08:33.187Z,1.00
2018-08-06T13:10:35.270Z,1.00
2018-08-06T13:12:38.395Z,1.00
2018-08-06T13:14:40.488Z,1.00
2018-08-06T13:16:42.691Z,1.00
2018-08-06T13:18:44.780Z,1.00
2018-08-06T13:20:47.015Z,1.00
2018-08-06T13:22:49.133Z,1.00
2018-08-06T13:24:51.242Z,1.00
2018-08-06T13:26:53.330Z,1.00
2018-08-06T13:28:55.575Z,1.00
2018-08-06T13:30:57.680Z,1.00
2018-08-06T13:32:59.813Z,1.00
2018-08-06T13:35:01.907Z,1.00
2018-08-06T13:37:04.074Z,1.00
2018-08-06T13:39:07.749Z,1.00
2018-08-06T13:41:09.918Z,1.00
2018-08-06T13:43:11.966Z,1.00
2018-08-06T13:45:14.126Z,1.00
2018-08-06T13:47:16.338Z,1.00
2018-08-06T13:49:18.481Z,1.00
2018-08-06T13:51:20.641Z,1.00
2018-08-06T13:53:22.844Z,1.00
2018-08-06T13:55:24.848Z,1.00
2018-08-06T13:57:26.916Z,1.00
2018-08-06T13:59:29.128Z,1.00
2018-08-06T14:01:31.257Z,1.00
2018-08-06T14:03:33.370Z,1.00
2018-08-06T14:05:35.469Z,1.00
2018-08-06T14:07:37.730Z,1.00
2018-08-06T14:09:39.886Z,1.00
2018-08-06T14:11:41.949Z,1.00
2018-08-06T14:13:44.044Z,1.00
2018-08-06T14:15:46.225Z,1.00
2018-08-06T14:17:48.318Z,1.00
2018-08-06T14:19:50.424Z,1.00
2018-08-06T14:21:52.501Z,1.00
2018-08-06T14:23:54.925Z,1.00
2018-08-06T14:25:57.148Z,1.00
2018-08-06T14:27:59.269Z,1.00
2018-08-06T14:30:01.471Z,1.00
2018-08-06T14:32:03.648Z,1.00
2018-08-06T14:36:08.033Z,1.00
2018-08-06T14:38:10.121Z,1.00
2018-08-06T14:40:14.825Z,1.00
2018-08-06T14:42:17.057Z,1.00
2018-08-06T14:44:19.189Z,1.00
2018-08-06T14:46:21.260Z,1.00
2018-08-06T14:48:23.528Z,1.00
2018-08-06T14:50:25.613Z,1.00
2018-08-06T14:52:27.777Z,1.00
2018-08-06T14:54:29.909Z,1.00
2018-08-06T14:56:31.988Z,1.00
2018-08-06T14:58:34.051Z,1.00
2018-08-06T15:02:38.765Z,1.00
2018-08-06T15:04:40.932Z,1.00
2018-08-06T15:06:43.030Z,1.00
2018-08-06T15:08:45.081Z,1.00
2018-08-06T15:10:47.299Z,1.00
2018-08-06T15:12:49.457Z,1.00
2018-08-06T15:14:51.569Z,1.00
2018-08-06T15:16:53.952Z,1.00
2018-08-06T15:20:58.170Z,1.00
2018-08-06T15:23:00.436Z,1.00
2018-08-06T15:25:03.709Z,1.00
2018-08-06T15:27:05.935Z,1.00
2018-08-06T15:29:08.085Z,1.00
2018-08-06T15:31:10.219Z,1.00
2018-08-06T15:33:12.311Z,1.00
2018-08-06T15:35:14.512Z,1.00
2018-08-06T15:37:16.815Z,1.00
2018-08-06T15:39:19.154Z,1.00
2018-08-06T15:41:21.618Z,1.00
2018-08-06T15:43:23.786Z,1.00
2018-08-06T15:45:25.845Z,1.00
2018-08-06T15:47:28.009Z,1.00
2018-08-06T15:49:30.042Z,1.00
2018-08-06T15:51:32.331Z,1.00
2018-08-06T15:53:34.359Z,1.00
2018-08-06T15:55:36.496Z,1.00
2018-08-06T15:57:38.749Z,1.00
2018-08-06T15:59:44.423Z,1.00
2018-08-06T16:01:46.592Z,1.00
2018-08-06T16:03:48.773Z,1.00
2018-08-06T16:05:50.838Z,1.00
2018-08-06T16:07:53.086Z,1.00
2018-08-06T16:09:55.257Z,1.00
2018-08-06T16:11:57.331Z,1.00
2018-08-06T16:13:59.456Z,1.00
2018-08-06T16:16:01.609Z,1.00
2018-08-06T16:18:03.709Z,1.00
2018-08-06T16:20:07.526Z,1.00
2018-08-06T16:22:09.696Z,1.00
2018-08-06T16:24:11.799Z,1.00
2018-08-06T16:26:13.930Z,1.00
2018-08-06T16:28:16.009Z,1.00
2018-08-06T16:30:21.435Z,1.00
2018-08-06T16:32:25.706Z,1.00
2018-08-06T16:34:28.672Z,1.00
2018-08-06T16:36:30.755Z,1.00
2018-08-06T16:38:32.945Z,1.00
2018-08-06T16:40:35.070Z,1.00
2018-08-06T16:42:37.286Z,1.00
2018-08-06T16:44:39.405Z,1.00
2018-08-06T16:46:41.485Z,1.00
2018-08-06T16:48:43.562Z,1.00
2018-08-06T16:50:45.616Z,1.00
2018-08-06T16:52:47.845Z,1.00
2018-08-06T16:54:50.998Z,1.00
2018-08-06T16:56:53.137Z,1.00
2018-08-06T16:58:55.249Z,1.00
2018-08-06T17:00:57.374Z,1.00
2018-08-06T17:02:59.502Z,1.00
2018-08-06T17:05:01.613Z,1.00
2018-08-06T17:07:03.704Z,1.00
2018-08-06T17:09:06.487Z,1.00
2018-08-06T17:11:08.683Z,1.00
2018-08-06T17:13:10.797Z,1.00
2018-08-06T17:15:14.152Z,1.00
2018-08-06T17:17:16.278Z,1.00
2018-08-06T17:19:18.758Z,1.00
2018-08-06T17:21:20.857Z,1.00
2018-08-06T17:23:22.929Z,1.00
2018-08-06T17:25:25.010Z,1.00
2018-08-06T17:27:27.195Z,1.00
2018-08-06T17:29:29.381Z,1.00
2018-08-06T17:31:31.451Z,1.00
2018-08-06T17:33:33.543Z,1.00
2018-08-06T17:35:35.686Z,1.00
2018-08-06T17:37:37.910Z,1.00
2018-08-06T17:39:39.976Z,1.00
2018-08-06T17:41:42.113Z,1.00
2018-08-06T17:43:44.942Z,1.00
2018-08-06T17:45:47.265Z,1.00
2018-08-06T17:47:49.345Z,1.00
2018-08-06T17:51:59.146Z,1.00
2018-08-06T17:54:01.471Z,1.00
2018-08-06T17:58:05.745Z,1.00
2018-08-06T18:00:08.628Z,1.00
2018-08-06T18:02:10.663Z,1.00
2018-08-06T18:04:12.886Z,1.00
2018-08-06T18:06:14.944Z,1.00
2018-08-06T18:08:17.030Z,1.00
2018-08-06T18:10:19.094Z,1.00
2018-08-06T18:12:21.377Z,1.00
2018-08-06T18:14:23.489Z,1.00
2018-08-06T18:16:25.588Z,1.00
2018-08-06T18:18:27.691Z,1.00
2018-08-06T18:20:29.833Z,1.00
2018-08-06T18:22:32.032Z,1.00
2018-08-06T18:24:34.175Z,1.00
2018-08-06T18:26:36.538Z,1.00
2018-08-06T18:28:38.697Z,1.00
2018-08-06T18:30:40.821Z,1.00
2018-08-06T18:34:45.077Z,1.00
2018-08-06T18:36:47.246Z,1.00
2018-08-06T18:38:49.421Z,1.00
2018-08-06T18:40:51.668Z,1.00
2018-08-06T18:42:53.793Z,1.00
2018-08-06T18:44:56.030Z,1.00
2018-08-06T18:46:58.172Z,1.00
2018-08-06T18:49:00.974Z,1.00
2018-08-06T18:51:03.184Z,1.00
2018-08-06T18:53:05.356Z,1.00
2018-08-06T18:55:10.489Z,1.00
2018-08-06T18:57:12.922Z,1.00
2018-08-06T18:59:15.089Z,1.00
2018-08-06T19:01:17.233Z,1.00
2018-08-06T19:03:19.306Z,1.00
2018-08-06T19:05:21.495Z,1.00
2018-08-06T19:07:23.577Z,1.00
2018-08-06T19:09:25.621Z,1.00
2018-08-06T19:11:27.995Z,1.00
2018-08-06T19:14:34.833Z,1.00
2018-08-06T19:16:37.122Z,1.00
2018-08-06T19:18:45.086Z,1.00
2018-08-06T19:20:47.163Z,1.00
2018-08-06T19:22:49.240Z,1.00
2018-08-06T19:24:57.079Z,1.00
2018-08-06T19:26:59.184Z,1.00
2018-08-06T19:29:01.267Z,1.00
2018-08-06T19:31:09.025Z,1.00
2018-08-06T19:33:11.165Z,1.00
2018-08-06T19:35:13.264Z,1.00
2018-08-06T19:37:21.042Z,1.00
2018-08-06T19:39:23.215Z,1.00
2018-08-06T19:41:25.841Z,1.00
2018-08-06T19:43:33.683Z,1.00
2018-08-06T19:45:35.806Z,1.00
2018-08-06T19:47:38.274Z,1.00
2018-08-06T19:49:46.134Z,1.00
2018-08-06T19:51:48.272Z,1.00
2018-08-06T19:53:50.355Z,1.00
2018-08-06T19:55:58.058Z,1.00
2018-08-06T19:58:00.188Z,1.00
2018-08-06T20:00:02.486Z,1.00
2018-08-06T20:02:04.643Z,1.00
2018-08-06T20:04:07.313Z,1.00
2018-08-06T20:06:09.450Z,1.00
2018-08-06T20:08:11.578Z,1.00
2018-08-06T20:10:14.469Z,1.00
2018-08-06T20:12:16.549Z,1.00
2018-08-06T20:18:22.914Z,1.00
2018-08-06T20:20:25.030Z,1.00
2018-08-06T20:22:27.086Z,1.00
2018-08-06T20:24:29.183Z,1.00
2018-08-06T20:26:31.393Z,1.00
2018-08-06T20:28:33.462Z,1.00
2018-08-06T20:30:35.556Z,1.00
2018-08-06T20:32:37.944Z,1.00
2018-08-06T20:34:40.063Z,1.00
2018-08-06T20:36:42.130Z,1.00
2018-08-06T20:38:46.187Z,1.00
2018-08-06T20:40:49.292Z,1.00
2018-08-06T20:42:58.521Z,1.00
2018-08-06T20:45:03.038Z,1.00
2018-08-06T20:47:06.074Z,1.00
2018-08-06T20:49:09.467Z,1.00
2018-08-06T20:53:15.668Z,1.00
2018-08-06T20:55:19.232Z,1.00
2018-08-06T20:57:22.993Z,1.00
2018-08-06T20:59:26.386Z,1.00
2018-08-06T21:01:29.315Z,1.00
2018-08-06T21:03:32.206Z,1.00
2018-08-06T21:05:35.170Z,1.00
2018-08-06T21:07:38.374Z,1.00
2018-08-06T21:09:41.294Z,1.00
2018-08-06T21:11:44.695Z,1.00
2018-08-06T21:13:47.610Z,1.00
2018-08-06T21:15:50.241Z,1.90
2018-08-06T21:17:53.223Z,3.10
2018-08-06T21:19:56.042Z,1.70
2018-08-06T21:21:58.914Z,4.70
2018-08-06T21:24:01.481Z,5.10
2018-08-06T21:26:04.209Z,2.70
2018-08-06T21:28:07.055Z,5.00
2018-08-06T21:30:13.604Z,4.90
2018-08-06T21:32:16.403Z,3.00
2018-08-06T21:34:19.678Z,5.40
2018-08-06T21:36:22.417Z,7.70
2018-08-06T21:38:25.082Z,6.20
2018-08-06T21:40:27.285Z,6.00
2018-08-06T21:42:29.474Z,7.30
2018-08-06T21:44:31.718Z,9.00
2018-08-06T21:46:33.859Z,9.20
2018-08-06T21:48:36.041Z,9.90
2018-08-06T21:52:40.426Z,5.10
2018-08-06T21:54:42.684Z,7.50
2018-08-06T21:56:44.824Z,7.80
2018-08-06T21:58:46.977Z,8.10
2018-08-06T22:00:49.047Z,8.40
2018-08-06T22:02:51.145Z,10.40
2018-08-06T22:04:53.221Z,5.50
2018-08-06T22:06:55.337Z,2.90
2018-08-06T22:08:57.531Z,4.30
2018-08-06T22:10:59.622Z,2.00
2018-08-06T22:13:01.729Z,1.40
2018-08-06T22:15:04.149Z,1.80
2018-08-06T22:17:06.357Z,1.60
2018-08-06T22:19:09.687Z,1.00
2018-08-06T22:21:11.788Z,1.80
2018-08-06T22:23:13.974Z,2.00
2018-08-06T22:25:16.111Z,2.30
2018-08-06T22:27:18.334Z,4.50
2018-08-06T22:29:20.447Z,5.80
2018-08-06T22:31:22.651Z,4.50
2018-08-06T22:33:24.817Z,8.00
2018-08-06T22:35:27.064Z,8.20
2018-08-06T22:37:29.273Z,7.30
2018-08-06T22:39:31.457Z,9.80
2018-08-06T22:41:33.643Z,10.90
2018-08-06T22:43:35.883Z,12.30
2018-08-06T22:45:38.015Z,11.80
2018-08-06T22:47:41.300Z,11.40
2018-08-06T22:49:43.492Z,9.80
2018-08-06T22:51:45.794Z,9.90
2018-08-06T22:53:47.953Z,9.50
2018-08-06T22:56:04.945Z,14.10
2018-08-06T22:58:07.156Z,12.30
2018-08-06T23:00:11.368Z,10.50
2018-08-06T23:02:13.645Z,9.70
2018-08-06T23:04:15.843Z,11.90
2018-08-06T23:06:18.065Z,10.70
2018-08-06T23:08:20.270Z,12.60
2018-08-06T23:10:22.460Z,10.90
2018-08-06T23:14:26.820Z,13.70
2018-08-06T23:16:28.994Z,12.70
2018-08-06T23:18:31.186Z,10.20
2018-08-06T23:20:33.320Z,10.50
2018-08-06T23:22:35.508Z,9.60
2018-08-06T23:24:37.642Z,9.10
2018-08-06T23:26:39.810Z,9.80
2018-08-06T23:28:41.948Z,9.30
2018-08-06T23:30:44.164Z,10.80
2018-08-06T23:32:46.266Z,11.60
2018-08-06T23:34:48.442Z,10.70
2018-08-06T23:36:50.616Z,13.10
2018-08-06T23:38:52.740Z,11.10
2018-08-06T23:40:54.866Z,11.60
2018-08-06T23:42:57.018Z,12.50
2018-08-06T23:44:59.237Z,11.50
2018-08-06T23:47:01.494Z,10.50
2018-08-06T23:49:03.604Z,13.00
2018-08-06T23:53:08.622Z,12.00
2018-08-06T23:55:11.967Z,12.50
2018-08-06T23:57:14.126Z,12.90
2018-08-06T23:59:16.355Z,12.50
